sensor_id;sensor_type;location;lat;lon;timestamp;temperature;humidity
14119;DHT22;7138;49.246;9.100;2022-07-29T00:00:25;20.30;99.90
14119;DHT22;7138;49.246;9.100;2022-07-29T00:02:50;20.20;99.90
14119;DHT22;7138;49.246;9.100;2022-07-29T00:05:16;20.30;99.90
14119;DHT22;7138;49.246;9.100;2022-07-29T00:07:42;20.30;99.90
14119;DHT22;7138;49.246;9.100;2022-07-29T00:10:08;20.30;99.90
14119;DHT22;7138;49.246;9.100;2022-07-29T00:12:36;20.20;99.90
14119;DHT22;7138;49.246;9.100;2022-07-29T00:15:02;20.20;99.90
14119;DHT22;7138;49.246;9.100;2022-07-29T00:17:29;20.20;99.90
14119;DHT22;7138;49.246;9.100;2022-07-29T00:19:55;20.10;99.90
14119;DHT22;7138;49.246;9.100;2022-07-29T00:22:21;20.10;99.90
14119;DHT22;7138;49.246;9.100;2022-07-29T00:24:47;20.10;99.90
14119;DHT22;7138;49.246;9.100;2022-07-29T00:27:14;20.00;99.90
14119;DHT22;7138;49.246;9.100;2022-07-29T00:29:41;19.90;99.90
14119;DHT22;7138;49.246;9.100;2022-07-29T00:32:07;19.80;99.90
14119;DHT22;7138;49.246;9.100;2022-07-29T00:34:33;19.70;99.90
14119;DHT22;7138;49.246;9.100;2022-07-29T00:37:17;19.70;99.90
14119;DHT22;7138;49.246;9.100;2022-07-29T00:39:43;19.70;99.90
14119;DHT22;7138;49.246;9.100;2022-07-29T00:42:09;19.60;99.90
14119;DHT22;7138;49.246;9.100;2022-07-29T00:44:41;19.50;99.90
14119;DHT22;7138;49.246;9.100;2022-07-29T00:47:09;19.50;99.90
14119;DHT22;7138;49.246;9.100;2022-07-29T00:49:37;19.50;99.90
14119;DHT22;7138;49.246;9.100;2022-07-29T00:52:05;19.50;99.90
14119;DHT22;7138;49.246;9.100;2022-07-29T00:54:32;19.50;99.90
14119;DHT22;7138;49.246;9.100;2022-07-29T00:56:59;19.40;99.90
14119;DHT22;7138;49.246;9.100;2022-07-29T00:59:26;19.50;99.90
14119;DHT22;7138;49.246;9.100;2022-07-29T01:01:54;19.40;99.90
14119;DHT22;7138;49.246;9.100;2022-07-29T01:04:21;19.40;99.90
14119;DHT22;7138;49.246;9.100;2022-07-29T01:06:47;19.40;99.90
14119;DHT22;7138;49.246;9.100;2022-07-29T01:09:14;19.40;99.90
14119;DHT22;7138;49.246;9.100;2022-07-29T01:11:43;19.40;99.90
14119;DHT22;7138;49.246;9.100;2022-07-29T01:14:14;19.30;99.90
14119;DHT22;7138;49.246;9.100;2022-07-29T01:16:45;19.30;99.90
14119;DHT22;7138;49.246;9.100;2022-07-29T01:19:31;19.20;99.90
14119;DHT22;7138;49.246;9.100;2022-07-29T01:22:24;19.20;99.90
14119;DHT22;7138;49.246;9.100;2022-07-29T01:25:17;19.20;99.90
14119;DHT22;7138;49.246;9.100;2022-07-29T01:28:10;19.20;99.90
14119;DHT22;7138;49.246;9.100;2022-07-29T01:30:51;19.10;99.90
14119;DHT22;7138;49.246;9.100;2022-07-29T01:33:18;19.00;99.90
14119;DHT22;7138;49.246;9.100;2022-07-29T01:36:08;19.10;99.90
14119;DHT22;7138;49.246;9.100;2022-07-29T01:38:40;19.10;99.90
14119;DHT22;7138;49.246;9.100;2022-07-29T01:41:10;19.20;99.90
14119;DHT22;7138;49.246;9.100;2022-07-29T01:43:44;19.10;99.90
14119;DHT22;7138;49.246;9.100;2022-07-29T01:46:23;19.00;99.90
14119;DHT22;7138;49.246;9.100;2022-07-29T01:48:59;19.00;99.90
14119;DHT22;7138;49.246;9.100;2022-07-29T01:51:35;19.00;99.90
14119;DHT22;7138;49.246;9.100;2022-07-29T01:54:13;19.00;99.90
14119;DHT22;7138;49.246;9.100;2022-07-29T01:56:45;18.90;99.90
14119;DHT22;7138;49.246;9.100;2022-07-29T01:59:14;18.80;99.90
14119;DHT22;7138;49.246;9.100;2022-07-29T02:01:44;18.90;99.90
14119;DHT22;7138;49.246;9.100;2022-07-29T02:04:15;18.90;99.90
14119;DHT22;7138;49.246;9.100;2022-07-29T02:06:44;18.90;99.90
14119;DHT22;7138;49.246;9.100;2022-07-29T02:09:12;18.80;99.90
14119;DHT22;7138;49.246;9.100;2022-07-29T02:11:47;18.80;99.90
14119;DHT22;7138;49.246;9.100;2022-07-29T02:14:18;18.70;99.90
14119;DHT22;7138;49.246;9.100;2022-07-29T02:16:47;18.80;99.90
14119;DHT22;7138;49.246;9.100;2022-07-29T02:19:17;18.80;99.90
14119;DHT22;7138;49.246;9.100;2022-07-29T02:21:46;18.70;99.90
14119;DHT22;7138;49.246;9.100;2022-07-29T02:24:14;18.70;99.90
14119;DHT22;7138;49.246;9.100;2022-07-29T02:26:43;18.70;99.90
14119;DHT22;7138;49.246;9.100;2022-07-29T02:29:11;18.60;99.90
14119;DHT22;7138;49.246;9.100;2022-07-29T02:31:41;18.60;99.90
14119;DHT22;7138;49.246;9.100;2022-07-29T02:34:10;18.50;99.90
14119;DHT22;7138;49.246;9.100;2022-07-29T02:36:37;18.50;99.90
14119;DHT22;7138;49.246;9.100;2022-07-29T02:39:06;18.50;99.90
14119;DHT22;7138;49.246;9.100;2022-07-29T02:41:40;18.40;99.90
14119;DHT22;7138;49.246;9.100;2022-07-29T02:44:11;18.40;99.90
14119;DHT22;7138;49.246;9.100;2022-07-29T02:46:45;18.40;99.90
14119;DHT22;7138;49.246;9.100;2022-07-29T02:49:18;18.40;99.90
14119;DHT22;7138;49.246;9.100;2022-07-29T02:52:00;18.30;99.90
14119;DHT22;7138;49.246;9.100;2022-07-29T02:54:31;18.20;99.90
14119;DHT22;7138;49.246;9.100;2022-07-29T02:57:08;18.20;99.90
14119;DHT22;7138;49.246;9.100;2022-07-29T02:59:41;18.20;99.90
14119;DHT22;7138;49.246;9.100;2022-07-29T03:02:09;18.10;99.90
14119;DHT22;7138;49.246;9.100;2022-07-29T03:04:40;18.00;99.90
14119;DHT22;7138;49.246;9.100;2022-07-29T03:07:09;18.00;99.90
14119;DHT22;7138;49.246;9.100;2022-07-29T03:09:37;18.00;99.90
14119;DHT22;7138;49.246;9.100;2022-07-29T03:12:06;18.00;99.90
14119;DHT22;7138;49.246;9.100;2022-07-29T03:14:32;18.00;99.90
14119;DHT22;7138;49.246;9.100;2022-07-29T03:16:59;17.90;99.90
14119;DHT22;7138;49.246;9.100;2022-07-29T03:19:26;17.80;99.90
14119;DHT22;7138;49.246;9.100;2022-07-29T03:21:56;17.90;99.90
14119;DHT22;7138;49.246;9.100;2022-07-29T03:24:29;17.80;99.90
14119;DHT22;7138;49.246;9.100;2022-07-29T03:26:56;17.80;99.90
14119;DHT22;7138;49.246;9.100;2022-07-29T03:29:23;17.80;99.90
14119;DHT22;7138;49.246;9.100;2022-07-29T03:31:50;17.80;99.90
14119;DHT22;7138;49.246;9.100;2022-07-29T03:34:16;17.60;99.90
14119;DHT22;7138;49.246;9.100;2022-07-29T03:36:42;17.60;99.90
14119;DHT22;7138;49.246;9.100;2022-07-29T03:39:10;17.50;99.90
14119;DHT22;7138;49.246;9.100;2022-07-29T03:41:38;17.40;99.90
14119;DHT22;7138;49.246;9.100;2022-07-29T03:44:07;17.30;99.90
14119;DHT22;7138;49.246;9.100;2022-07-29T03:46:36;17.40;99.90
14119;DHT22;7138;49.246;9.100;2022-07-29T03:49:05;17.30;99.90
14119;DHT22;7138;49.246;9.100;2022-07-29T03:51:33;17.30;99.90
14119;DHT22;7138;49.246;9.100;2022-07-29T03:54:00;17.30;99.90
14119;DHT22;7138;49.246;9.100;2022-07-29T03:56:29;17.30;99.90
14119;DHT22;7138;49.246;9.100;2022-07-29T03:59:01;17.30;99.90
14119;DHT22;7138;49.246;9.100;2022-07-29T04:01:28;17.20;99.90
14119;DHT22;7138;49.246;9.100;2022-07-29T04:03:55;17.20;99.90
14119;DHT22;7138;49.246;9.100;2022-07-29T04:06:21;17.10;99.90
14119;DHT22;7138;49.246;9.100;2022-07-29T04:08:47;17.00;99.90
14119;DHT22;7138;49.246;9.100;2022-07-29T04:11:13;17.10;99.90
14119;DHT22;7138;49.246;9.100;2022-07-29T04:13:40;17.00;99.90
14119;DHT22;7138;49.246;9.100;2022-07-29T04:16:06;16.90;99.90
14119;DHT22;7138;49.246;9.100;2022-07-29T04:18:32;16.90;99.90
14119;DHT22;7138;49.246;9.100;2022-07-29T04:20:58;16.90;99.90
14119;DHT22;7138;49.246;9.100;2022-07-29T04:23:26;17.00;99.90
14119;DHT22;7138;49.246;9.100;2022-07-29T04:25:52;17.00;99.90
14119;DHT22;7138;49.246;9.100;2022-07-29T04:28:18;17.10;99.90
14119;DHT22;7138;49.246;9.100;2022-07-29T04:30:45;17.10;99.90
14119;DHT22;7138;49.246;9.100;2022-07-29T04:33:11;17.10;99.90
14119;DHT22;7138;49.246;9.100;2022-07-29T04:35:40;17.10;99.90
14119;DHT22;7138;49.246;9.100;2022-07-29T04:38:06;17.00;99.90
14119;DHT22;7138;49.246;9.100;2022-07-29T04:40:33;17.10;99.90
14119;DHT22;7138;49.246;9.100;2022-07-29T04:43:00;17.20;99.90
14119;DHT22;7138;49.246;9.100;2022-07-29T04:45:26;17.30;99.90
14119;DHT22;7138;49.246;9.100;2022-07-29T04:47:54;17.20;99.90
14119;DHT22;7138;49.246;9.100;2022-07-29T04:50:20;17.30;99.90
14119;DHT22;7138;49.246;9.100;2022-07-29T04:52:46;17.30;99.90
14119;DHT22;7138;49.246;9.100;2022-07-29T04:55:12;17.40;99.90
14119;DHT22;7138;49.246;9.100;2022-07-29T04:57:37;17.50;99.90
14119;DHT22;7138;49.246;9.100;2022-07-29T05:00:05;17.80;99.90
14119;DHT22;7138;49.246;9.100;2022-07-29T05:02:32;17.90;99.90
14119;DHT22;7138;49.246;9.100;2022-07-29T05:04:59;18.10;99.90
14119;DHT22;7138;49.246;9.100;2022-07-29T05:07:25;18.30;99.90
14119;DHT22;7138;49.246;9.100;2022-07-29T05:09:51;18.70;99.90
14119;DHT22;7138;49.246;9.100;2022-07-29T05:12:18;19.40;99.90
14119;DHT22;7138;49.246;9.100;2022-07-29T05:14:44;20.00;99.90
14119;DHT22;7138;49.246;9.100;2022-07-29T05:17:10;20.50;99.90
14119;DHT22;7138;49.246;9.100;2022-07-29T05:19:35;21.20;99.90
14119;DHT22;7138;49.246;9.100;2022-07-29T05:22:03;21.70;99.90
14119;DHT22;7138;49.246;9.100;2022-07-29T05:24:28;22.20;99.90
14119;DHT22;7138;49.246;9.100;2022-07-29T05:26:54;22.60;99.90
14119;DHT22;7138;49.246;9.100;2022-07-29T05:29:20;22.80;99.90
14119;DHT22;7138;49.246;9.100;2022-07-29T05:31:46;22.70;99.90
14119;DHT22;7138;49.246;9.100;2022-07-29T05:34:12;22.50;99.90
14119;DHT22;7138;49.246;9.100;2022-07-29T05:36:38;22.80;99.90
14119;DHT22;7138;49.246;9.100;2022-07-29T05:39:05;22.40;99.90
14119;DHT22;7138;49.246;9.100;2022-07-29T05:41:31;22.10;99.90
14119;DHT22;7138;49.246;9.100;2022-07-29T05:43:57;21.30;99.90
14119;DHT22;7138;49.246;9.100;2022-07-29T05:46:23;21.00;99.90
14119;DHT22;7138;49.246;9.100;2022-07-29T05:48:49;20.70;99.90
14119;DHT22;7138;49.246;9.100;2022-07-29T05:51:15;20.70;99.90
14119;DHT22;7138;49.246;9.100;2022-07-29T05:53:41;20.60;99.90
14119;DHT22;7138;49.246;9.100;2022-07-29T05:56:08;20.70;99.90
14119;DHT22;7138;49.246;9.100;2022-07-29T05:58:34;20.90;99.90
14119;DHT22;7138;49.246;9.100;2022-07-29T06:01:00;20.80;99.90
14119;DHT22;7138;49.246;9.100;2022-07-29T06:03:26;20.60;99.90
14119;DHT22;7138;49.246;9.100;2022-07-29T06:05:52;20.40;99.90
14119;DHT22;7138;49.246;9.100;2022-07-29T06:08:19;20.50;99.90
14119;DHT22;7138;49.246;9.100;2022-07-29T06:10:45;21.20;99.90
14119;DHT22;7138;49.246;9.100;2022-07-29T06:13:12;21.50;99.90
14119;DHT22;7138;49.246;9.100;2022-07-29T06:15:41;21.60;99.90
14119;DHT22;7138;49.246;9.100;2022-07-29T06:18:07;22.60;99.90
14119;DHT22;7138;49.246;9.100;2022-07-29T06:20:34;22.70;99.90
14119;DHT22;7138;49.246;9.100;2022-07-29T06:23:00;22.30;99.90
14119;DHT22;7138;49.246;9.100;2022-07-29T06:25:27;22.10;99.90
14119;DHT22;7138;49.246;9.100;2022-07-29T06:27:54;22.30;99.90
14119;DHT22;7138;49.246;9.100;2022-07-29T06:30:21;22.80;99.90
14119;DHT22;7138;49.246;9.100;2022-07-29T06:32:47;23.30;99.90
14119;DHT22;7138;49.246;9.100;2022-07-29T06:35:13;23.50;99.90
14119;DHT22;7138;49.246;9.100;2022-07-29T06:37:39;23.00;99.90
14119;DHT22;7138;49.246;9.100;2022-07-29T06:40:05;22.50;99.90
14119;DHT22;7138;49.246;9.100;2022-07-29T06:42:50;22.10;99.90
14119;DHT22;7138;49.246;9.100;2022-07-29T06:45:16;22.30;99.90
14119;DHT22;7138;49.246;9.100;2022-07-29T06:47:43;22.80;99.90
14119;DHT22;7138;49.246;9.100;2022-07-29T06:50:09;23.60;99.90
14119;DHT22;7138;49.246;9.100;2022-07-29T06:52:37;24.20;99.90
14119;DHT22;7138;49.246;9.100;2022-07-29T06:55:04;24.50;99.90
14119;DHT22;7138;49.246;9.100;2022-07-29T06:57:31;24.40;99.90
14119;DHT22;7138;49.246;9.100;2022-07-29T06:59:57;24.50;99.90
14119;DHT22;7138;49.246;9.100;2022-07-29T07:02:23;24.50;99.90
14119;DHT22;7138;49.246;9.100;2022-07-29T07:04:50;24.90;99.90
14119;DHT22;7138;49.246;9.100;2022-07-29T07:07:16;25.40;99.90
14119;DHT22;7138;49.246;9.100;2022-07-29T07:09:41;24.80;99.90
14119;DHT22;7138;49.246;9.100;2022-07-29T07:12:07;24.80;99.90
14119;DHT22;7138;49.246;9.100;2022-07-29T07:14:34;25.00;99.90
14119;DHT22;7138;49.246;9.100;2022-07-29T07:16:59;25.30;99.90
14119;DHT22;7138;49.246;9.100;2022-07-29T07:19:26;25.00;99.90
14119;DHT22;7138;49.246;9.100;2022-07-29T07:21:53;25.30;99.90
14119;DHT22;7138;49.246;9.100;2022-07-29T07:24:19;25.70;99.90
14119;DHT22;7138;49.246;9.100;2022-07-29T07:26:45;26.00;99.90
14119;DHT22;7138;49.246;9.100;2022-07-29T07:29:11;26.40;99.90
14119;DHT22;7138;49.246;9.100;2022-07-29T07:31:38;26.40;99.90
14119;DHT22;7138;49.246;9.100;2022-07-29T07:34:04;25.80;99.90
14119;DHT22;7138;49.246;9.100;2022-07-29T07:36:30;26.40;99.90
14119;DHT22;7138;49.246;9.100;2022-07-29T07:38:57;26.20;99.90
14119;DHT22;7138;49.246;9.100;2022-07-29T07:41:23;26.80;99.90
14119;DHT22;7138;49.246;9.100;2022-07-29T07:43:49;25.90;99.90
14119;DHT22;7138;49.246;9.100;2022-07-29T07:46:15;26.70;99.90
14119;DHT22;7138;49.246;9.100;2022-07-29T07:48:41;27.30;99.90
14119;DHT22;7138;49.246;9.100;2022-07-29T07:51:07;26.80;99.90
14119;DHT22;7138;49.246;9.100;2022-07-29T07:53:33;26.90;99.90
14119;DHT22;7138;49.246;9.100;2022-07-29T07:56:00;27.60;99.90
14119;DHT22;7138;49.246;9.100;2022-07-29T07:58:26;27.80;99.90
14119;DHT22;7138;49.246;9.100;2022-07-29T08:00:53;28.10;99.90
14119;DHT22;7138;49.246;9.100;2022-07-29T08:03:19;28.30;99.90
14119;DHT22;7138;49.246;9.100;2022-07-29T08:05:45;28.40;99.90
14119;DHT22;7138;49.246;9.100;2022-07-29T08:08:11;28.30;99.90
14119;DHT22;7138;49.246;9.100;2022-07-29T08:10:40;28.80;99.90
14119;DHT22;7138;49.246;9.100;2022-07-29T08:13:21;27.50;99.90
14119;DHT22;7138;49.246;9.100;2022-07-29T08:15:48;27.50;99.90
14119;DHT22;7138;49.246;9.100;2022-07-29T08:18:23;27.70;99.90
14119;DHT22;7138;49.246;9.100;2022-07-29T08:20:49;27.00;99.90
14119;DHT22;7138;49.246;9.100;2022-07-29T08:23:15;26.70;99.90
14119;DHT22;7138;49.246;9.100;2022-07-29T08:25:41;26.20;99.90
14119;DHT22;7138;49.246;9.100;2022-07-29T08:28:07;27.30;99.90
14119;DHT22;7138;49.246;9.100;2022-07-29T08:30:34;27.50;99.90
14119;DHT22;7138;49.246;9.100;2022-07-29T08:33:00;28.10;99.90
14119;DHT22;7138;49.246;9.100;2022-07-29T08:35:27;28.70;99.90
14119;DHT22;7138;49.246;9.100;2022-07-29T08:37:53;28.50;99.90
14119;DHT22;7138;49.246;9.100;2022-07-29T08:40:20;28.60;99.90
14119;DHT22;7138;49.246;9.100;2022-07-29T08:42:46;28.70;99.90
14119;DHT22;7138;49.246;9.100;2022-07-29T08:45:12;29.00;99.90
14119;DHT22;7138;49.246;9.100;2022-07-29T08:47:40;28.90;99.90
14119;DHT22;7138;49.246;9.100;2022-07-29T08:50:07;28.50;99.90
14119;DHT22;7138;49.246;9.100;2022-07-29T08:52:36;28.10;99.90
14119;DHT22;7138;49.246;9.100;2022-07-29T08:55:04;28.20;99.90
14119;DHT22;7138;49.246;9.100;2022-07-29T08:57:30;28.20;99.90
14119;DHT22;7138;49.246;9.100;2022-07-29T09:00:00;28.00;99.90
14119;DHT22;7138;49.246;9.100;2022-07-29T09:02:29;28.20;99.90
14119;DHT22;7138;49.246;9.100;2022-07-29T09:05:02;27.90;99.90
14119;DHT22;7138;49.246;9.100;2022-07-29T09:07:29;27.60;99.90
14119;DHT22;7138;49.246;9.100;2022-07-29T09:09:55;27.20;99.90
14119;DHT22;7138;49.246;9.100;2022-07-29T09:12:22;27.10;99.90
14119;DHT22;7138;49.246;9.100;2022-07-29T09:14:50;27.30;99.90
14119;DHT22;7138;49.246;9.100;2022-07-29T09:17:16;27.90;99.90
14119;DHT22;7138;49.246;9.100;2022-07-29T09:19:43;28.40;99.90
14119;DHT22;7138;49.246;9.100;2022-07-29T09:22:10;28.40;99.90
14119;DHT22;7138;49.246;9.100;2022-07-29T09:24:39;28.70;99.90
14119;DHT22;7138;49.246;9.100;2022-07-29T09:27:22;28.70;99.90
14119;DHT22;7138;49.246;9.100;2022-07-29T09:29:58;27.80;99.90
14119;DHT22;7138;49.246;9.100;2022-07-29T09:32:25;28.20;99.90
14119;DHT22;7138;49.246;9.100;2022-07-29T09:35:16;28.90;99.90
14119;DHT22;7138;49.246;9.100;2022-07-29T09:37:44;29.40;99.90
14119;DHT22;7138;49.246;9.100;2022-07-29T09:40:12;29.60;99.90
14119;DHT22;7138;49.246;9.100;2022-07-29T09:42:41;29.60;99.90
14119;DHT22;7138;49.246;9.100;2022-07-29T09:45:08;29.70;99.90
14119;DHT22;7138;49.246;9.100;2022-07-29T09:47:42;29.70;99.90
14119;DHT22;7138;49.246;9.100;2022-07-29T09:50:11;30.30;99.90
14119;DHT22;7138;49.246;9.100;2022-07-29T09:52:46;30.00;99.90
14119;DHT22;7138;49.246;9.100;2022-07-29T09:55:13;30.50;99.90
14119;DHT22;7138;49.246;9.100;2022-07-29T09:57:40;30.20;99.90
14119;DHT22;7138;49.246;9.100;2022-07-29T10:00:08;30.10;99.90
14119;DHT22;7138;49.246;9.100;2022-07-29T10:02:37;29.90;99.90
14119;DHT22;7138;49.246;9.100;2022-07-29T10:05:05;29.90;99.90
14119;DHT22;7138;49.246;9.100;2022-07-29T10:07:47;30.30;99.90
14119;DHT22;7138;49.246;9.100;2022-07-29T10:10:22;30.50;99.90
14119;DHT22;7138;49.246;9.100;2022-07-29T10:12:51;30.40;99.90
14119;DHT22;7138;49.246;9.100;2022-07-29T10:15:21;30.00;99.90
14119;DHT22;7138;49.246;9.100;2022-07-29T10:17:49;29.30;99.90
14119;DHT22;7138;49.246;9.100;2022-07-29T10:20:16;29.50;99.90
14119;DHT22;7138;49.246;9.100;2022-07-29T10:22:42;29.50;99.90
14119;DHT22;7138;49.246;9.100;2022-07-29T10:25:10;29.80;99.90
14119;DHT22;7138;49.246;9.100;2022-07-29T10:27:36;30.30;99.90
14119;DHT22;7138;49.246;9.100;2022-07-29T10:30:03;29.60;99.90
14119;DHT22;7138;49.246;9.100;2022-07-29T10:32:50;30.10;99.90
14119;DHT22;7138;49.246;9.100;2022-07-29T10:35:33;30.10;99.90
14119;DHT22;7138;49.246;9.100;2022-07-29T10:38:50;29.60;99.90
14119;DHT22;7138;49.246;9.100;2022-07-29T10:41:36;30.20;99.90
14119;DHT22;7138;49.246;9.100;2022-07-29T10:44:15;30.20;99.90
14119;DHT22;7138;49.246;9.100;2022-07-29T10:46:43;30.60;99.90
14119;DHT22;7138;49.246;9.100;2022-07-29T10:49:12;30.50;99.90
14119;DHT22;7138;49.246;9.100;2022-07-29T10:51:56;30.20;99.90
14119;DHT22;7138;49.246;9.100;2022-07-29T10:54:40;29.50;99.90
14119;DHT22;7138;49.246;9.100;2022-07-29T10:57:19;30.00;99.90
14119;DHT22;7138;49.246;9.100;2022-07-29T10:59:47;30.60;99.90
14119;DHT22;7138;49.246;9.100;2022-07-29T11:02:45;30.20;99.90
14119;DHT22;7138;49.246;9.100;2022-07-29T11:05:17;30.10;99.90
14119;DHT22;7138;49.246;9.100;2022-07-29T11:08:22;30.40;99.90
14119;DHT22;7138;49.246;9.100;2022-07-29T11:10:50;30.70;99.90
14119;DHT22;7138;49.246;9.100;2022-07-29T11:16:22;31.10;99.90
14119;DHT22;7138;49.246;9.100;2022-07-29T11:19:20;31.40;99.90
14119;DHT22;7138;49.246;9.100;2022-07-29T11:21:46;31.60;99.00
14119;DHT22;7138;49.246;9.100;2022-07-29T11:24:16;31.60;99.90
14119;DHT22;7138;49.246;9.100;2022-07-29T11:26:44;31.50;98.90
14119;DHT22;7138;49.246;9.100;2022-07-29T11:29:19;30.40;99.70
14119;DHT22;7138;49.246;9.100;2022-07-29T11:31:50;30.50;99.90
14119;DHT22;7138;49.246;9.100;2022-07-29T11:34:22;30.30;99.90
14119;DHT22;7138;49.246;9.100;2022-07-29T11:37:21;30.70;99.90
14119;DHT22;7138;49.246;9.100;2022-07-29T11:40:14;30.70;99.90
14119;DHT22;7138;49.246;9.100;2022-07-29T11:42:43;31.10;99.90
14119;DHT22;7138;49.246;9.100;2022-07-29T11:45:13;30.70;99.20
14119;DHT22;7138;49.246;9.100;2022-07-29T11:47:51;31.20;99.70
14119;DHT22;7138;49.246;9.100;2022-07-29T11:50:28;31.10;99.50
14119;DHT22;7138;49.246;9.100;2022-07-29T11:52:56;31.10;98.40
14119;DHT22;7138;49.246;9.100;2022-07-29T11:55:24;31.10;99.10
14119;DHT22;7138;49.246;9.100;2022-07-29T11:57:51;30.30;99.50
14119;DHT22;7138;49.246;9.100;2022-07-29T12:00:29;31.20;99.40
14119;DHT22;7138;49.246;9.100;2022-07-29T12:02:57;31.40;98.00
14119;DHT22;7138;49.246;9.100;2022-07-29T12:05:32;31.70;97.90
14119;DHT22;7138;49.246;9.100;2022-07-29T12:08:12;31.80;97.30
14119;DHT22;7138;49.246;9.100;2022-07-29T12:10:41;31.90;97.80
14119;DHT22;7138;49.246;9.100;2022-07-29T12:13:08;31.90;97.90
14119;DHT22;7138;49.246;9.100;2022-07-29T12:15:36;32.00;96.00
14119;DHT22;7138;49.246;9.100;2022-07-29T12:18:13;31.50;96.00
14119;DHT22;7138;49.246;9.100;2022-07-29T12:20:41;31.80;96.00
14119;DHT22;7138;49.246;9.100;2022-07-29T12:23:07;31.30;95.20
14119;DHT22;7138;49.246;9.100;2022-07-29T12:25:35;31.30;95.70
14119;DHT22;7138;49.246;9.100;2022-07-29T12:28:04;31.60;95.10
14119;DHT22;7138;49.246;9.100;2022-07-29T12:30:51;31.60;96.20
14119;DHT22;7138;49.246;9.100;2022-07-29T12:33:19;31.00;95.40
14119;DHT22;7138;49.246;9.100;2022-07-29T12:35:48;31.20;96.10
14119;DHT22;7138;49.246;9.100;2022-07-29T12:38:17;31.60;95.50
14119;DHT22;7138;49.246;9.100;2022-07-29T12:40:45;31.40;95.90
14119;DHT22;7138;49.246;9.100;2022-07-29T12:43:14;31.20;95.50
14119;DHT22;7138;49.246;9.100;2022-07-29T12:45:44;30.70;96.50
14119;DHT22;7138;49.246;9.100;2022-07-29T12:48:12;30.40;96.40
14119;DHT22;7138;49.246;9.100;2022-07-29T12:50:53;30.00;96.20
14119;DHT22;7138;49.246;9.100;2022-07-29T12:53:20;30.40;96.20
14119;DHT22;7138;49.246;9.100;2022-07-29T12:55:48;31.00;96.50
14119;DHT22;7138;49.246;9.100;2022-07-29T12:58:27;31.20;94.90
14119;DHT22;7138;49.246;9.100;2022-07-29T13:01:02;30.70;94.70
14119;DHT22;7138;49.246;9.100;2022-07-29T13:03:46;30.50;94.20
14119;DHT22;7138;49.246;9.100;2022-07-29T13:06:31;30.30;94.40
14119;DHT22;7138;49.246;9.100;2022-07-29T13:09:08;30.20;94.90
14119;DHT22;7138;49.246;9.100;2022-07-29T13:11:37;30.00;93.40
14119;DHT22;7138;49.246;9.100;2022-07-29T13:14:06;29.80;94.50
14119;DHT22;7138;49.246;9.100;2022-07-29T13:16:34;29.80;94.50
14119;DHT22;7138;49.246;9.100;2022-07-29T13:19:09;29.80;94.70
14119;DHT22;7138;49.246;9.100;2022-07-29T13:21:37;29.70;94.40
14119;DHT22;7138;49.246;9.100;2022-07-29T13:24:04;29.80;94.70
14119;DHT22;7138;49.246;9.100;2022-07-29T13:26:31;29.90;94.30
14119;DHT22;7138;49.246;9.100;2022-07-29T13:28:57;29.50;93.90
14119;DHT22;7138;49.246;9.100;2022-07-29T13:31:23;29.50;93.90
14119;DHT22;7138;49.246;9.100;2022-07-29T13:33:49;29.60;93.90
14119;DHT22;7138;49.246;9.100;2022-07-29T13:36:17;29.60;94.10
14119;DHT22;7138;49.246;9.100;2022-07-29T13:38:43;29.40;94.10
14119;DHT22;7138;49.246;9.100;2022-07-29T13:41:09;29.10;94.00
14119;DHT22;7138;49.246;9.100;2022-07-29T13:43:35;29.00;93.80
14119;DHT22;7138;49.246;9.100;2022-07-29T13:46:01;28.70;94.30
14119;DHT22;7138;49.246;9.100;2022-07-29T13:48:26;28.80;94.30
14119;DHT22;7138;49.246;9.100;2022-07-29T13:50:52;28.90;94.60
14119;DHT22;7138;49.246;9.100;2022-07-29T13:53:20;29.00;95.60
14119;DHT22;7138;49.246;9.100;2022-07-29T13:55:45;29.20;95.20
14119;DHT22;7138;49.246;9.100;2022-07-29T13:58:11;29.00;94.70
14119;DHT22;7138;49.246;9.100;2022-07-29T14:00:40;28.90;94.60
14119;DHT22;7138;49.246;9.100;2022-07-29T14:03:07;28.80;94.90
14119;DHT22;7138;49.246;9.100;2022-07-29T14:05:32;28.80;94.60
14119;DHT22;7138;49.246;9.100;2022-07-29T14:07:58;28.60;94.30
14119;DHT22;7138;49.246;9.100;2022-07-29T14:10:26;28.50;94.80
14119;DHT22;7138;49.246;9.100;2022-07-29T14:12:52;28.70;95.10
14119;DHT22;7138;49.246;9.100;2022-07-29T14:15:18;28.70;94.80
14119;DHT22;7138;49.246;9.100;2022-07-29T14:17:44;28.50;94.90
14119;DHT22;7138;49.246;9.100;2022-07-29T14:20:10;28.60;95.20
14119;DHT22;7138;49.246;9.100;2022-07-29T14:22:35;28.50;94.50
14119;DHT22;7138;49.246;9.100;2022-07-29T14:25:01;28.50;94.70
14119;DHT22;7138;49.246;9.100;2022-07-29T14:27:29;28.30;94.60
14119;DHT22;7138;49.246;9.100;2022-07-29T14:29:55;28.20;94.80
14119;DHT22;7138;49.246;9.100;2022-07-29T14:32:20;28.20;95.60
14119;DHT22;7138;49.246;9.100;2022-07-29T14:34:46;28.30;94.80
14119;DHT22;7138;49.246;9.100;2022-07-29T14:37:12;28.20;94.70
14119;DHT22;7138;49.246;9.100;2022-07-29T14:39:38;28.30;95.60
14119;DHT22;7138;49.246;9.100;2022-07-29T14:42:04;28.10;94.90
14119;DHT22;7138;49.246;9.100;2022-07-29T14:44:31;28.00;94.90
14119;DHT22;7138;49.246;9.100;2022-07-29T14:46:57;28.10;94.50
14119;DHT22;7138;49.246;9.100;2022-07-29T14:49:25;28.20;94.30
14119;DHT22;7138;49.246;9.100;2022-07-29T14:51:50;28.00;95.10
14119;DHT22;7138;49.246;9.100;2022-07-29T14:54:17;27.90;94.50
14119;DHT22;7138;49.246;9.100;2022-07-29T14:56:42;27.90;94.50
14119;DHT22;7138;49.246;9.100;2022-07-29T14:59:08;27.90;94.40
14119;DHT22;7138;49.246;9.100;2022-07-29T15:01:35;28.00;95.00
14119;DHT22;7138;49.246;9.100;2022-07-29T15:04:02;27.90;94.00
14119;DHT22;7138;49.246;9.100;2022-07-29T15:06:28;27.80;93.10
14119;DHT22;7138;49.246;9.100;2022-07-29T15:08:54;27.70;93.50
14119;DHT22;7138;49.246;9.100;2022-07-29T15:11:20;27.70;93.00
14119;DHT22;7138;49.246;9.100;2022-07-29T15:13:45;27.80;93.00
14119;DHT22;7138;49.246;9.100;2022-07-29T15:16:11;27.80;92.50
14119;DHT22;7138;49.246;9.100;2022-07-29T15:18:38;27.80;92.50
14119;DHT22;7138;49.246;9.100;2022-07-29T15:21:04;28.00;93.40
14119;DHT22;7138;49.246;9.100;2022-07-29T15:23:32;28.20;93.10
14119;DHT22;7138;49.246;9.100;2022-07-29T15:26:00;28.30;93.30
14119;DHT22;7138;49.246;9.100;2022-07-29T15:28:26;28.30;92.70
14119;DHT22;7138;49.246;9.100;2022-07-29T15:30:52;28.20;94.30
14119;DHT22;7138;49.246;9.100;2022-07-29T15:33:18;28.30;93.50
14119;DHT22;7138;49.246;9.100;2022-07-29T15:35:45;28.30;93.00
14119;DHT22;7138;49.246;9.100;2022-07-29T15:38:11;28.20;92.50
14119;DHT22;7138;49.246;9.100;2022-07-29T15:40:38;28.10;93.20
14119;DHT22;7138;49.246;9.100;2022-07-29T15:43:06;28.20;92.60
14119;DHT22;7138;49.246;9.100;2022-07-29T15:45:35;28.10;93.20
14119;DHT22;7138;49.246;9.100;2022-07-29T15:48:01;28.00;93.20
14119;DHT22;7138;49.246;9.100;2022-07-29T15:50:28;27.90;92.70
14119;DHT22;7138;49.246;9.100;2022-07-29T15:52:55;27.90;92.70
14119;DHT22;7138;49.246;9.100;2022-07-29T15:55:21;28.00;93.80
14119;DHT22;7138;49.246;9.100;2022-07-29T15:57:48;27.90;92.60
14119;DHT22;7138;49.246;9.100;2022-07-29T16:00:14;27.90;93.20